sensor_id;sensor_type;location;lat;lon;timestamp;P1;durP1;ratioP1;P2;durP2;ratioP2
47725;SDS011;33483;48.294;16.388;2022-07-04T00:01:43;5.60;;;2.83;;
47725;SDS011;33483;48.294;16.388;2022-07-04T00:04:13;4.53;;;2.92;;
47725;SDS011;33483;48.294;16.388;2022-07-04T00:06:40;9.32;;;3.50;;
47725;SDS011;33483;48.294;16.388;2022-07-04T00:09:07;5.10;;;3.13;;
47725;SDS011;33483;48.294;16.388;2022-07-04T00:11:36;5.82;;;3.15;;
47725;SDS011;33483;48.294;16.388;2022-07-04T00:14:05;5.03;;;3.05;;
47725;SDS011;33483;48.294;16.388;2022-07-04T00:16:32;5.35;;;3.03;;
47725;SDS011;33483;48.294;16.388;2022-07-04T00:19:01;4.00;;;3.05;;
47725;SDS011;33483;48.294;16.388;2022-07-04T00:21:28;6.03;;;3.22;;
47725;SDS011;33483;48.294;16.388;2022-07-04T00:23:57;4.35;;;3.08;;
47725;SDS011;33483;48.294;16.388;2022-07-04T00:26:28;4.68;;;3.42;;
47725;SDS011;33483;48.294;16.388;2022-07-04T00:28:57;4.38;;;3.55;;
47725;SDS011;33483;48.294;16.388;2022-07-04T00:31:25;3.75;;;3.40;;
47725;SDS011;33483;48.294;16.388;2022-07-04T00:33:52;5.82;;;4.10;;
47725;SDS011;33483;48.294;16.388;2022-07-04T00:36:19;8.57;;;3.95;;
47725;SDS011;33483;48.294;16.388;2022-07-04T00:38:48;5.25;;;4.35;;
47725;SDS011;33483;48.294;16.388;2022-07-04T00:41:15;6.72;;;4.43;;
47725;SDS011;33483;48.294;16.388;2022-07-04T00:43:42;5.40;;;4.60;;
47725;SDS011;33483;48.294;16.388;2022-07-04T00:46:29;6.38;;;4.63;;
47725;SDS011;33483;48.294;16.388;2022-07-04T00:48:59;7.35;;;4.53;;
47725;SDS011;33483;48.294;16.388;2022-07-04T00:51:27;5.10;;;4.57;;
47725;SDS011;33483;48.294;16.388;2022-07-04T00:53:57;6.15;;;4.60;;
47725;SDS011;33483;48.294;16.388;2022-07-04T00:56:28;6.88;;;4.85;;
47725;SDS011;33483;48.294;16.388;2022-07-04T00:58:56;5.22;;;4.72;;
47725;SDS011;33483;48.294;16.388;2022-07-04T01:01:26;6.40;;;5.43;;
47725;SDS011;33483;48.294;16.388;2022-07-04T01:03:53;5.50;;;4.88;;
47725;SDS011;33483;48.294;16.388;2022-07-04T01:06:20;7.55;;;5.18;;
47725;SDS011;33483;48.294;16.388;2022-07-04T01:08:48;9.80;;;5.35;;
47725;SDS011;33483;48.294;16.388;2022-07-04T01:11:15;8.43;;;4.95;;
47725;SDS011;33483;48.294;16.388;2022-07-04T01:13:43;8.70;;;4.90;;
47725;SDS011;33483;48.294;16.388;2022-07-04T01:16:10;5.88;;;5.18;;
47725;SDS011;33483;48.294;16.388;2022-07-04T01:18:38;13.18;;;5.45;;
47725;SDS011;33483;48.294;16.388;2022-07-04T01:21:05;9.60;;;5.63;;
47725;SDS011;33483;48.294;16.388;2022-07-04T01:23:39;5.40;;;4.85;;
47725;SDS011;33483;48.294;16.388;2022-07-04T01:26:07;6.43;;;5.40;;
47725;SDS011;33483;48.294;16.388;2022-07-04T01:28:34;6.25;;;4.80;;
47725;SDS011;33483;48.294;16.388;2022-07-04T01:31:08;7.03;;;5.18;;
47725;SDS011;33483;48.294;16.388;2022-07-04T01:33:35;6.68;;;4.63;;
47725;SDS011;33483;48.294;16.388;2022-07-04T01:36:03;5.05;;;4.32;;
47725;SDS011;33483;48.294;16.388;2022-07-04T01:38:30;6.25;;;4.28;;
47725;SDS011;33483;48.294;16.388;2022-07-04T01:40:57;4.55;;;3.85;;
47725;SDS011;33483;48.294;16.388;2022-07-04T01:43:24;7.22;;;4.25;;
47725;SDS011;33483;48.294;16.388;2022-07-04T01:45:51;4.47;;;3.70;;
47725;SDS011;33483;48.294;16.388;2022-07-04T01:48:18;4.95;;;4.20;;
47725;SDS011;33483;48.294;16.388;2022-07-04T01:50:45;4.78;;;3.80;;
47725;SDS011;33483;48.294;16.388;2022-07-04T01:53:14;6.28;;;3.75;;
47725;SDS011;33483;48.294;16.388;2022-07-04T01:55:41;4.72;;;3.60;;
47725;SDS011;33483;48.294;16.388;2022-07-04T01:58:11;5.05;;;3.70;;
47725;SDS011;33483;48.294;16.388;2022-07-04T02:00:38;5.95;;;3.70;;
47725;SDS011;33483;48.294;16.388;2022-07-04T02:03:24;4.43;;;3.40;;
47725;SDS011;33483;48.294;16.388;2022-07-04T02:05:51;8.13;;;3.65;;
47725;SDS011;33483;48.294;16.388;2022-07-04T02:08:18;5.55;;;3.70;;
47725;SDS011;33483;48.294;16.388;2022-07-04T02:10:45;3.78;;;3.17;;
47725;SDS011;33483;48.294;16.388;2022-07-04T02:13:12;3.75;;;3.35;;
47725;SDS011;33483;48.294;16.388;2022-07-04T02:15:40;3.88;;;2.60;;
47725;SDS011;33483;48.294;16.388;2022-07-04T02:18:09;5.55;;;2.83;;
47725;SDS011;33483;48.294;16.388;2022-07-04T02:20:38;3.92;;;2.95;;
47725;SDS011;33483;48.294;16.388;2022-07-04T02:23:05;5.50;;;2.83;;
47725;SDS011;33483;48.294;16.388;2022-07-04T02:25:33;5.70;;;3.20;;
47725;SDS011;33483;48.294;16.388;2022-07-04T02:28:00;4.60;;;2.80;;
47725;SDS011;33483;48.294;16.388;2022-07-04T02:30:30;5.65;;;3.15;;
47725;SDS011;33483;48.294;16.388;2022-07-04T02:32:57;4.85;;;2.70;;
47725;SDS011;33483;48.294;16.388;2022-07-04T02:35:24;4.95;;;2.92;;
47725;SDS011;33483;48.294;16.388;2022-07-04T02:37:51;5.20;;;3.15;;
47725;SDS011;33483;48.294;16.388;2022-07-04T02:40:19;4.30;;;2.55;;
47725;SDS011;33483;48.294;16.388;2022-07-04T02:42:46;5.65;;;2.90;;
47725;SDS011;33483;48.294;16.388;2022-07-04T02:45:12;3.55;;;2.90;;
47725;SDS011;33483;48.294;16.388;2022-07-04T02:47:40;4.10;;;2.78;;
47725;SDS011;33483;48.294;16.388;2022-07-04T02:50:09;4.13;;;3.03;;
47725;SDS011;33483;48.294;16.388;2022-07-04T02:52:36;3.33;;;3.00;;
47725;SDS011;33483;48.294;16.388;2022-07-04T02:55:05;4.22;;;2.70;;
47725;SDS011;33483;48.294;16.388;2022-07-04T02:57:32;4.20;;;3.03;;
47725;SDS011;33483;48.294;16.388;2022-07-04T03:00:04;11.63;;;3.30;;
47725;SDS011;33483;48.294;16.388;2022-07-04T03:02:34;4.22;;;2.58;;
47725;SDS011;33483;48.294;16.388;2022-07-04T03:05:01;5.45;;;2.90;;
47725;SDS011;33483;48.294;16.388;2022-07-04T03:07:31;4.65;;;3.15;;
47725;SDS011;33483;48.294;16.388;2022-07-04T03:09:58;5.28;;;3.03;;
47725;SDS011;33483;48.294;16.388;2022-07-04T03:12:27;4.32;;;3.05;;
47725;SDS011;33483;48.294;16.388;2022-07-04T03:14:54;6.07;;;3.50;;
47725;SDS011;33483;48.294;16.388;2022-07-04T03:17:24;5.07;;;3.03;;
47725;SDS011;33483;48.294;16.388;2022-07-04T03:19:57;3.03;;;2.58;;
47725;SDS011;33483;48.294;16.388;2022-07-04T03:22:25;5.07;;;3.05;;
47725;SDS011;33483;48.294;16.388;2022-07-04T03:24:52;4.97;;;3.33;;
47725;SDS011;33483;48.294;16.388;2022-07-04T03:27:20;5.95;;;3.70;;
47725;SDS011;33483;48.294;16.388;2022-07-04T03:29:47;5.88;;;3.75;;
47725;SDS011;33483;48.294;16.388;2022-07-04T03:32:14;5.85;;;4.10;;
47725;SDS011;33483;48.294;16.388;2022-07-04T03:34:44;6.07;;;3.95;;
47725;SDS011;33483;48.294;16.388;2022-07-04T03:37:11;7.38;;;4.65;;
47725;SDS011;33483;48.294;16.388;2022-07-04T03:39:38;6.68;;;4.80;;
47725;SDS011;33483;48.294;16.388;2022-07-04T03:42:05;6.13;;;4.95;;
47725;SDS011;33483;48.294;16.388;2022-07-04T03:44:32;5.55;;;4.72;;
47725;SDS011;33483;48.294;16.388;2022-07-04T03:47:02;6.70;;;4.63;;
47725;SDS011;33483;48.294;16.388;2022-07-04T03:49:29;8.05;;;4.30;;
47725;SDS011;33483;48.294;16.388;2022-07-04T03:51:56;7.30;;;4.15;;
47725;SDS011;33483;48.294;16.388;2022-07-04T03:54:26;7.32;;;3.50;;
47725;SDS011;33483;48.294;16.388;2022-07-04T03:56:55;6.80;;;3.60;;
47725;SDS011;33483;48.294;16.388;2022-07-04T03:59:25;7.57;;;3.17;;
47725;SDS011;33483;48.294;16.388;2022-07-04T04:01:54;4.43;;;3.30;;
47725;SDS011;33483;48.294;16.388;2022-07-04T04:04:21;4.15;;;3.00;;
47725;SDS011;33483;48.294;16.388;2022-07-04T04:07:13;3.40;;;2.90;;
47725;SDS011;33483;48.294;16.388;2022-07-04T04:09:39;4.45;;;3.05;;
47725;SDS011;33483;48.294;16.388;2022-07-04T04:12:07;4.35;;;2.80;;
47725;SDS011;33483;48.294;16.388;2022-07-04T04:14:34;3.95;;;2.60;;
47725;SDS011;33483;48.294;16.388;2022-07-04T04:17:04;4.55;;;2.58;;
47725;SDS011;33483;48.294;16.388;2022-07-04T04:19:31;3.50;;;2.70;;
47725;SDS011;33483;48.294;16.388;2022-07-04T04:21:58;4.00;;;2.63;;
47725;SDS011;33483;48.294;16.388;2022-07-04T04:24:25;3.47;;;2.47;;
47725;SDS011;33483;48.294;16.388;2022-07-04T04:26:52;3.22;;;2.45;;
47725;SDS011;33483;48.294;16.388;2022-07-04T04:29:19;4.18;;;2.50;;
47725;SDS011;33483;48.294;16.388;2022-07-04T04:31:49;6.57;;;2.60;;
47725;SDS011;33483;48.294;16.388;2022-07-04T04:34:16;3.20;;;2.50;;
47725;SDS011;33483;48.294;16.388;2022-07-04T04:36:45;4.20;;;2.50;;
47725;SDS011;33483;48.294;16.388;2022-07-04T04:39:13;3.67;;;2.60;;
47725;SDS011;33483;48.294;16.388;2022-07-04T04:41:40;5.25;;;2.47;;
47725;SDS011;33483;48.294;16.388;2022-07-04T04:44:10;4.07;;;2.50;;
47725;SDS011;33483;48.294;16.388;2022-07-04T04:46:36;4.88;;;2.80;;
47725;SDS011;33483;48.294;16.388;2022-07-04T04:49:04;3.15;;;2.42;;
47725;SDS011;33483;48.294;16.388;2022-07-04T04:51:31;5.57;;;2.80;;
47725;SDS011;33483;48.294;16.388;2022-07-04T04:53:59;5.60;;;2.85;;
47725;SDS011;33483;48.294;16.388;2022-07-04T04:56:26;5.00;;;2.50;;
47725;SDS011;33483;48.294;16.388;2022-07-04T04:58:53;6.38;;;2.85;;
47725;SDS011;33483;48.294;16.388;2022-07-04T05:01:20;6.65;;;3.30;;
47725;SDS011;33483;48.294;16.388;2022-07-04T05:04:09;6.82;;;2.33;;
47725;SDS011;33483;48.294;16.388;2022-07-04T05:06:37;5.95;;;2.53;;
47725;SDS011;33483;48.294;16.388;2022-07-04T05:09:04;4.65;;;2.53;;
47725;SDS011;33483;48.294;16.388;2022-07-04T05:11:31;5.60;;;2.45;;
47725;SDS011;33483;48.294;16.388;2022-07-04T05:13:58;6.30;;;2.63;;
47725;SDS011;33483;48.294;16.388;2022-07-04T05:16:28;4.00;;;2.67;;
47725;SDS011;33483;48.294;16.388;2022-07-04T05:18:55;6.22;;;2.67;;
47725;SDS011;33483;48.294;16.388;2022-07-04T05:21:24;4.35;;;2.13;;
47725;SDS011;33483;48.294;16.388;2022-07-04T05:23:52;6.57;;;2.50;;
47725;SDS011;33483;48.294;16.388;2022-07-04T05:26:20;8.68;;;2.45;;
47725;SDS011;33483;48.294;16.388;2022-07-04T05:28:48;7.88;;;2.58;;
47725;SDS011;33483;48.294;16.388;2022-07-04T05:31:15;3.67;;;2.40;;
47725;SDS011;33483;48.294;16.388;2022-07-04T05:33:45;9.18;;;2.75;;
47725;SDS011;33483;48.294;16.388;2022-07-04T05:36:12;7.13;;;2.63;;
47725;SDS011;33483;48.294;16.388;2022-07-04T05:38:39;5.35;;;2.40;;
47725;SDS011;33483;48.294;16.388;2022-07-04T05:41:06;5.85;;;2.40;;
47725;SDS011;33483;48.294;16.388;2022-07-04T05:43:33;8.32;;;2.53;;
47725;SDS011;33483;48.294;16.388;2022-07-04T05:46:00;12.85;;;2.50;;
47725;SDS011;33483;48.294;16.388;2022-07-04T05:48:27;5.40;;;2.60;;
47725;SDS011;33483;48.294;16.388;2022-07-04T05:50:58;6.45;;;2.45;;
47725;SDS011;33483;48.294;16.388;2022-07-04T05:53:28;4.43;;;2.28;;
47725;SDS011;33483;48.294;16.388;2022-07-04T05:55:55;6.43;;;2.72;;
47725;SDS011;33483;48.294;16.388;2022-07-04T05:58:22;7.43;;;2.65;;
47725;SDS011;33483;48.294;16.388;2022-07-04T06:00:50;3.50;;;2.50;;
47725;SDS011;33483;48.294;16.388;2022-07-04T06:03:17;9.02;;;2.70;;
47725;SDS011;33483;48.294;16.388;2022-07-04T06:05:52;10.48;;;2.65;;
47725;SDS011;33483;48.294;16.388;2022-07-04T06:08:20;8.95;;;2.72;;
47725;SDS011;33483;48.294;16.388;2022-07-04T06:10:49;13.93;;;2.88;;
47725;SDS011;33483;48.294;16.388;2022-07-04T06:13:16;9.05;;;2.85;;
47725;SDS011;33483;48.294;16.388;2022-07-04T06:15:43;7.35;;;2.67;;
47725;SDS011;33483;48.294;16.388;2022-07-04T06:18:13;8.23;;;3.47;;
47725;SDS011;33483;48.294;16.388;2022-07-04T06:20:40;4.20;;;2.40;;
47725;SDS011;33483;48.294;16.388;2022-07-04T06:23:10;5.82;;;2.25;;
47725;SDS011;33483;48.294;16.388;2022-07-04T06:25:37;3.22;;;2.40;;
47725;SDS011;33483;48.294;16.388;2022-07-04T06:28:04;3.97;;;2.38;;
47725;SDS011;33483;48.294;16.388;2022-07-04T06:30:54;7.72;;;2.67;;
47725;SDS011;33483;48.294;16.388;2022-07-04T06:33:22;5.38;;;2.50;;
47725;SDS011;33483;48.294;16.388;2022-07-04T06:35:53;4.10;;;2.45;;
47725;SDS011;33483;48.294;16.388;2022-07-04T06:38:27;7.07;;;2.78;;
47725;SDS011;33483;48.294;16.388;2022-07-04T06:40:57;8.88;;;2.95;;
47725;SDS011;33483;48.294;16.388;2022-07-04T06:43:25;5.30;;;2.40;;
47725;SDS011;33483;48.294;16.388;2022-07-04T06:45:55;4.50;;;2.50;;
47725;SDS011;33483;48.294;16.388;2022-07-04T06:48:22;6.78;;;2.50;;
47725;SDS011;33483;48.294;16.388;2022-07-04T06:50:49;3.83;;;2.22;;
47725;SDS011;33483;48.294;16.388;2022-07-04T06:53:17;12.45;;;2.97;;
47725;SDS011;33483;48.294;16.388;2022-07-04T06:55:44;6.82;;;2.30;;
47725;SDS011;33483;48.294;16.388;2022-07-04T06:58:13;6.75;;;2.78;;
47725;SDS011;33483;48.294;16.388;2022-07-04T07:00:41;3.60;;;2.75;;
47725;SDS011;33483;48.294;16.388;2022-07-04T07:03:11;5.65;;;2.45;;
47725;SDS011;33483;48.294;16.388;2022-07-04T07:05:38;3.25;;;2.20;;
47725;SDS011;33483;48.294;16.388;2022-07-04T07:08:25;3.95;;;2.38;;
47725;SDS011;33483;48.294;16.388;2022-07-04T07:10:53;6.95;;;2.70;;
47725;SDS011;33483;48.294;16.388;2022-07-04T07:13:21;4.95;;;2.47;;
47725;SDS011;33483;48.294;16.388;2022-07-04T07:15:50;2.60;;;2.10;;
47725;SDS011;33483;48.294;16.388;2022-07-04T07:18:17;11.93;;;2.63;;
47725;SDS011;33483;48.294;16.388;2022-07-04T07:20:44;5.13;;;2.38;;
47725;SDS011;33483;48.294;16.388;2022-07-04T07:23:12;4.78;;;2.00;;
47725;SDS011;33483;48.294;16.388;2022-07-04T07:25:40;3.80;;;2.10;;
47725;SDS011;33483;48.294;16.388;2022-07-04T07:28:07;6.53;;;2.47;;
47725;SDS011;33483;48.294;16.388;2022-07-04T07:30:34;4.40;;;1.92;;
47725;SDS011;33483;48.294;16.388;2022-07-04T07:33:01;3.22;;;2.08;;
47725;SDS011;33483;48.294;16.388;2022-07-04T07:35:29;3.33;;;2.00;;
47725;SDS011;33483;48.294;16.388;2022-07-04T07:37:56;4.53;;;2.10;;
47725;SDS011;33483;48.294;16.388;2022-07-04T07:40:26;3.53;;;1.70;;
47725;SDS011;33483;48.294;16.388;2022-07-04T07:42:57;3.38;;;2.15;;
47725;SDS011;33483;48.294;16.388;2022-07-04T07:45:25;3.00;;;2.00;;
47725;SDS011;33483;48.294;16.388;2022-07-04T07:47:52;2.83;;;1.90;;
47725;SDS011;33483;48.294;16.388;2022-07-04T07:50:19;8.27;;;2.30;;
47725;SDS011;33483;48.294;16.388;2022-07-04T07:52:46;2.97;;;1.90;;
47725;SDS011;33483;48.294;16.388;2022-07-04T07:55:13;5.00;;;2.40;;
47725;SDS011;33483;48.294;16.388;2022-07-04T07:57:42;5.10;;;2.30;;
47725;SDS011;33483;48.294;16.388;2022-07-04T08:00:15;4.95;;;2.15;;
47725;SDS011;33483;48.294;16.388;2022-07-04T08:03:05;3.55;;;1.88;;
47725;SDS011;33483;48.294;16.388;2022-07-04T08:05:51;5.38;;;2.20;;
47725;SDS011;33483;48.294;16.388;2022-07-04T08:08:20;5.68;;;1.90;;
47725;SDS011;33483;48.294;16.388;2022-07-04T08:10:50;2.95;;;1.95;;
47725;SDS011;33483;48.294;16.388;2022-07-04T08:13:18;3.60;;;2.10;;
47725;SDS011;33483;48.294;16.388;2022-07-04T08:15:47;2.55;;;1.70;;
47725;SDS011;33483;48.294;16.388;2022-07-04T08:18:14;8.80;;;1.52;;
47725;SDS011;33483;48.294;16.388;2022-07-04T08:20:43;3.15;;;1.63;;
47725;SDS011;33483;48.294;16.388;2022-07-04T08:23:28;6.78;;;1.48;;
47725;SDS011;33483;48.294;16.388;2022-07-04T08:25:57;3.38;;;1.48;;
47725;SDS011;33483;48.294;16.388;2022-07-04T08:28:28;1.92;;;1.60;;
47725;SDS011;33483;48.294;16.388;2022-07-04T08:30:56;3.97;;;1.50;;
47725;SDS011;33483;48.294;16.388;2022-07-04T08:33:23;2.00;;;1.13;;
47725;SDS011;33483;48.294;16.388;2022-07-04T08:35:53;5.75;;;1.63;;
47725;SDS011;33483;48.294;16.388;2022-07-04T08:38:23;6.25;;;1.33;;
47725;SDS011;33483;48.294;16.388;2022-07-04T08:40:57;4.35;;;1.30;;
47725;SDS011;33483;48.294;16.388;2022-07-04T08:43:28;5.70;;;1.48;;
47725;SDS011;33483;48.294;16.388;2022-07-04T08:46:00;2.78;;;1.48;;
47725;SDS011;33483;48.294;16.388;2022-07-04T08:48:52;1.98;;;1.20;;
47725;SDS011;33483;48.294;16.388;2022-07-04T08:51:25;5.07;;;1.30;;
47725;SDS011;33483;48.294;16.388;2022-07-04T08:53:58;5.28;;;1.13;;
47725;SDS011;33483;48.294;16.388;2022-07-04T08:56:28;3.30;;;1.20;;
47725;SDS011;33483;48.294;16.388;2022-07-04T08:59:14;2.90;;;1.48;;
47725;SDS011;33483;48.294;16.388;2022-07-04T09:01:42;1.63;;;1.27;;
47725;SDS011;33483;48.294;16.388;2022-07-04T09:04:12;8.43;;;1.63;;
47725;SDS011;33483;48.294;16.388;2022-07-04T09:06:40;2.03;;;1.23;;
47725;SDS011;33483;48.294;16.388;2022-07-04T09:09:08;1.23;;;0.98;;
47725;SDS011;33483;48.294;16.388;2022-07-04T09:11:36;4.97;;;1.38;;
47725;SDS011;33483;48.294;16.388;2022-07-04T09:14:03;4.95;;;1.40;;
47725;SDS011;33483;48.294;16.388;2022-07-04T09:16:30;5.88;;;1.70;;
47725;SDS011;33483;48.294;16.388;2022-07-04T09:18:57;2.78;;;1.40;;
47725;SDS011;33483;48.294;16.388;2022-07-04T09:21:41;3.60;;;1.40;;
47725;SDS011;33483;48.294;16.388;2022-07-04T09:24:10;2.33;;;1.23;;
47725;SDS011;33483;48.294;16.388;2022-07-04T09:26:39;3.38;;;1.17;;
47725;SDS011;33483;48.294;16.388;2022-07-04T09:29:14;2.60;;;1.50;;
47725;SDS011;33483;48.294;16.388;2022-07-04T09:31:43;2.58;;;1.30;;
47725;SDS011;33483;48.294;16.388;2022-07-04T09:34:19;6.15;;;1.55;;
47725;SDS011;33483;48.294;16.388;2022-07-04T09:36:51;2.13;;;1.60;;
47725;SDS011;33483;48.294;16.388;2022-07-04T09:39:22;3.42;;;2.00;;
47725;SDS011;33483;48.294;16.388;2022-07-04T09:44:18;3.05;;;1.35;;
47725;SDS011;33483;48.294;16.388;2022-07-04T09:46:46;5.57;;;1.50;;
47725;SDS011;33483;48.294;16.388;2022-07-04T09:49:15;15.57;;;2.10;;
47725;SDS011;33483;48.294;16.388;2022-07-04T09:51:44;4.75;;;1.70;;
47725;SDS011;33483;48.294;16.388;2022-07-04T09:56:48;5.28;;;1.80;;
47725;SDS011;33483;48.294;16.388;2022-07-04T09:59:18;2.80;;;1.60;;
47725;SDS011;33483;48.294;16.388;2022-07-04T10:01:49;3.58;;;1.50;;
47725;SDS011;33483;48.294;16.388;2022-07-04T10:04:16;4.07;;;1.42;;
47725;SDS011;33483;48.294;16.388;2022-07-04T10:06:44;4.43;;;1.40;;
47725;SDS011;33483;48.294;16.388;2022-07-04T10:09:15;3.85;;;1.73;;
47725;SDS011;33483;48.294;16.388;2022-07-04T10:11:44;3.42;;;1.88;;
47725;SDS011;33483;48.294;16.388;2022-07-04T10:14:13;2.53;;;1.67;;
47725;SDS011;33483;48.294;16.388;2022-07-04T10:16:42;3.67;;;2.10;;
47725;SDS011;33483;48.294;16.388;2022-07-04T10:19:12;5.38;;;1.70;;
47725;SDS011;33483;48.294;16.388;2022-07-04T10:21:39;6.57;;;1.60;;
47725;SDS011;33483;48.294;16.388;2022-07-04T10:24:09;1.88;;;1.30;;
47725;SDS011;33483;48.294;16.388;2022-07-04T10:26:36;5.28;;;1.50;;
47725;SDS011;33483;48.294;16.388;2022-07-04T10:29:04;2.45;;;1.80;;
47725;SDS011;33483;48.294;16.388;2022-07-04T10:31:31;3.20;;;1.60;;
47725;SDS011;33483;48.294;16.388;2022-07-04T10:34:01;3.38;;;1.35;;
47725;SDS011;33483;48.294;16.388;2022-07-04T10:36:30;2.72;;;1.60;;
47725;SDS011;33483;48.294;16.388;2022-07-04T10:38:58;4.25;;;1.42;;
47725;SDS011;33483;48.294;16.388;2022-07-04T10:41:28;3.42;;;1.67;;
47725;SDS011;33483;48.294;16.388;2022-07-04T10:46:29;3.08;;;1.70;;
47725;SDS011;33483;48.294;16.388;2022-07-04T10:49:05;2.72;;;1.63;;
47725;SDS011;33483;48.294;16.388;2022-07-04T10:51:52;5.85;;;1.50;;
47725;SDS011;33483;48.294;16.388;2022-07-04T10:59:40;4.40;;;2.00;;
47725;SDS011;33483;48.294;16.388;2022-07-04T11:08:01;8.07;;;1.90;;
47725;SDS011;33483;48.294;16.388;2022-07-04T11:18:03;2.35;;;1.30;;
47725;SDS011;33483;48.294;16.388;2022-07-04T11:20:35;3.35;;;1.38;;
47725;SDS011;33483;48.294;16.388;2022-07-04T11:23:13;1.67;;;1.33;;
47725;SDS011;33483;48.294;16.388;2022-07-04T11:25:46;3.90;;;1.60;;
47725;SDS011;33483;48.294;16.388;2022-07-04T11:31:11;2.85;;;1.50;;
47725;SDS011;33483;48.294;16.388;2022-07-04T11:33:40;5.03;;;1.30;;
47725;SDS011;33483;48.294;16.388;2022-07-04T11:36:10;3.20;;;1.40;;
47725;SDS011;33483;48.294;16.388;2022-07-04T11:38:44;2.33;;;1.60;;
47725;SDS011;33483;48.294;16.388;2022-07-04T11:41:13;6.22;;;1.50;;
47725;SDS011;33483;48.294;16.388;2022-07-04T11:44:03;4.22;;;1.52;;
47725;SDS011;33483;48.294;16.388;2022-07-04T11:49:59;1.95;;;1.42;;
47725;SDS011;33483;48.294;16.388;2022-07-04T11:52:26;3.58;;;1.42;;
47725;SDS011;33483;48.294;16.388;2022-07-04T11:55:27;4.15;;;1.60;;
47725;SDS011;33483;48.294;16.388;2022-07-04T11:57:54;1.95;;;1.30;;
47725;SDS011;33483;48.294;16.388;2022-07-04T12:00:28;4.00;;;1.52;;
47725;SDS011;33483;48.294;16.388;2022-07-04T12:02:59;8.65;;;1.92;;
47725;SDS011;33483;48.294;16.388;2022-07-04T12:05:28;4.22;;;1.60;;
47725;SDS011;33483;48.294;16.388;2022-07-04T12:07:56;2.28;;;1.40;;
47725;SDS011;33483;48.294;16.388;2022-07-04T12:10:43;3.28;;;1.38;;
47725;SDS011;33483;48.294;16.388;2022-07-04T12:13:16;2.08;;;1.42;;
47725;SDS011;33483;48.294;16.388;2022-07-04T12:15:45;4.60;;;1.45;;
47725;SDS011;33483;48.294;16.388;2022-07-04T12:18:22;3.78;;;1.50;;
47725;SDS011;33483;48.294;16.388;2022-07-04T12:20:53;5.65;;;1.33;;
47725;SDS011;33483;48.294;16.388;2022-07-04T12:23:21;3.58;;;1.40;;
47725;SDS011;33483;48.294;16.388;2022-07-04T12:25:55;4.95;;;1.40;;
47725;SDS011;33483;48.294;16.388;2022-07-04T12:28:22;2.40;;;1.40;;
47725;SDS011;33483;48.294;16.388;2022-07-04T12:31:00;6.07;;;1.63;;
47725;SDS011;33483;48.294;16.388;2022-07-04T12:33:28;1.45;;;1.20;;
47725;SDS011;33483;48.294;16.388;2022-07-04T12:35:56;1.63;;;1.13;;
47725;SDS011;33483;48.294;16.388;2022-07-04T12:46:13;4.13;;;1.10;;
47725;SDS011;33483;48.294;16.388;2022-07-04T12:48:55;3.35;;;1.42;;
47725;SDS011;33483;48.294;16.388;2022-07-04T12:51:27;3.08;;;1.30;;
47725;SDS011;33483;48.294;16.388;2022-07-04T12:53:58;5.00;;;1.52;;
47725;SDS011;33483;48.294;16.388;2022-07-04T12:56:34;1.92;;;1.40;;
47725;SDS011;33483;48.294;16.388;2022-07-04T12:59:04;1.80;;;1.48;;
47725;SDS011;33483;48.294;16.388;2022-07-04T13:01:39;4.05;;;1.35;;
47725;SDS011;33483;48.294;16.388;2022-07-04T13:04:10;4.28;;;1.20;;
47725;SDS011;33483;48.294;16.388;2022-07-04T13:06:38;3.53;;;0.90;;
47725;SDS011;33483;48.294;16.388;2022-07-04T13:09:06;8.43;;;1.60;;
47725;SDS011;33483;48.294;16.388;2022-07-04T13:11:38;2.13;;;1.17;;
47725;SDS011;33483;48.294;16.388;2022-07-04T13:14:24;1.65;;;1.20;;
47725;SDS011;33483;48.294;16.388;2022-07-04T13:16:52;2.38;;;1.23;;
47725;SDS011;33483;48.294;16.388;2022-07-04T13:19:19;5.88;;;1.60;;
47725;SDS011;33483;48.294;16.388;2022-07-04T13:21:47;3.08;;;1.20;;
47725;SDS011;33483;48.294;16.388;2022-07-04T13:24:20;5.75;;;1.05;;
47725;SDS011;33483;48.294;16.388;2022-07-04T13:26:48;1.92;;;1.20;;
47725;SDS011;33483;48.294;16.388;2022-07-04T13:29:15;1.75;;;1.17;;
47725;SDS011;33483;48.294;16.388;2022-07-04T13:31:42;2.22;;;1.27;;
47725;SDS011;33483;48.294;16.388;2022-07-04T13:34:11;1.75;;;1.20;;
47725;SDS011;33483;48.294;16.388;2022-07-04T13:36:41;2.67;;;1.20;;
47725;SDS011;33483;48.294;16.388;2022-07-04T13:39:08;2.28;;;1.30;;
47725;SDS011;33483;48.294;16.388;2022-07-04T13:41:40;3.47;;;1.40;;
47725;SDS011;33483;48.294;16.388;2022-07-04T13:44:07;11.65;;;1.63;;
47725;SDS011;33483;48.294;16.388;2022-07-04T13:46:35;3.88;;;1.15;;
47725;SDS011;33483;48.294;16.388;2022-07-04T13:49:03;1.48;;;1.00;;
47725;SDS011;33483;48.294;16.388;2022-07-04T13:51:39;2.03;;;0.98;;
47725;SDS011;33483;48.294;16.388;2022-07-04T13:54:08;1.98;;;1.08;;
47725;SDS011;33483;48.294;16.388;2022-07-04T13:56:36;3.08;;;1.25;;
47725;SDS011;33483;48.294;16.388;2022-07-04T13:59:04;4.70;;;1.30;;
47725;SDS011;33483;48.294;16.388;2022-07-04T14:01:31;2.30;;;1.40;;
47725;SDS011;33483;48.294;16.388;2022-07-04T14:03:58;1.90;;;1.00;;
47725;SDS011;33483;48.294;16.388;2022-07-04T14:06:26;4.22;;;1.30;;
47725;SDS011;33483;48.294;16.388;2022-07-04T14:08:53;4.18;;;1.33;;
47725;SDS011;33483;48.294;16.388;2022-07-04T14:11:20;4.32;;;1.35;;
47725;SDS011;33483;48.294;16.388;2022-07-04T14:13:47;3.65;;;1.25;;
47725;SDS011;33483;48.294;16.388;2022-07-04T14:16:15;6.72;;;1.33;;
47725;SDS011;33483;48.294;16.388;2022-07-04T14:18:42;3.08;;;1.25;;
47725;SDS011;33483;48.294;16.388;2022-07-04T14:21:09;4.57;;;1.30;;
47725;SDS011;33483;48.294;16.388;2022-07-04T14:23:36;1.00;;;0.85;;
47725;SDS011;33483;48.294;16.388;2022-07-04T14:28:40;6.20;;;1.60;;
47725;SDS011;33483;48.294;16.388;2022-07-04T14:31:11;1.55;;;1.20;;
47725;SDS011;33483;48.294;16.388;2022-07-04T14:33:38;3.22;;;1.60;;
47725;SDS011;33483;48.294;16.388;2022-07-04T14:36:06;3.20;;;1.02;;
47725;SDS011;33483;48.294;16.388;2022-07-04T14:38:34;2.53;;;1.23;;
47725;SDS011;33483;48.294;16.388;2022-07-04T14:41:04;3.92;;;0.98;;
47725;SDS011;33483;48.294;16.388;2022-07-04T14:43:41;3.08;;;1.05;;
47725;SDS011;33483;48.294;16.388;2022-07-04T14:46:10;7.50;;;1.20;;
47725;SDS011;33483;48.294;16.388;2022-07-04T14:48:38;2.42;;;1.25;;
47725;SDS011;33483;48.294;16.388;2022-07-04T14:51:05;4.47;;;1.33;;
47725;SDS011;33483;48.294;16.388;2022-07-04T14:53:33;2.97;;;1.45;;
47725;SDS011;33483;48.294;16.388;2022-07-04T14:56:01;2.58;;;1.08;;
47725;SDS011;33483;48.294;16.388;2022-07-04T14:58:31;2.78;;;1.10;;
47725;SDS011;33483;48.294;16.388;2022-07-04T15:01:00;4.85;;;1.30;;
47725;SDS011;33483;48.294;16.388;2022-07-04T15:03:27;2.03;;;1.15;;
47725;SDS011;33483;48.294;16.388;2022-07-04T15:05:57;2.25;;;1.25;;
47725;SDS011;33483;48.294;16.388;2022-07-04T15:08:26;2.97;;;1.20;;
47725;SDS011;33483;48.294;16.388;2022-07-04T15:10:54;5.43;;;1.30;;
47725;SDS011;33483;48.294;16.388;2022-07-04T15:13:28;2.00;;;1.30;;
47725;SDS011;33483;48.294;16.388;2022-07-04T15:15:58;4.72;;;1.10;;
47725;SDS011;33483;48.294;16.388;2022-07-04T15:18:45;1.35;;;1.10;;
47725;SDS011;33483;48.294;16.388;2022-07-04T15:21:12;2.25;;;1.40;;
47725;SDS011;33483;48.294;16.388;2022-07-04T15:23:58;2.38;;;1.27;;
47725;SDS011;33483;48.294;16.388;2022-07-04T15:26:39;1.88;;;1.20;;
47725;SDS011;33483;48.294;16.388;2022-07-04T15:29:07;2.70;;;1.30;;
47725;SDS011;33483;48.294;16.388;2022-07-04T15:31:40;1.25;;;1.15;;